MMPNMMMM

Guest
Details From MMPN - LICENCIADO Y GEN IGNACIO LOPEZ RAYON
To MMMM - GENERAL FRANCISCO J MUJICA INTL
Flight Number -
Tags generated
Created
Modified
Stats Distance 63 nm / 118 km
Max Altitude 100 ft / 30 m
Waypoints 3
Social Downloads 3
Likes 0
Share VATSIM

Download

Looking for another format? Having issues loading an existing format? Contact us
Advertisement - Login to hide

Notes

Basic altitude profile: - Ascent Rate: 2500ft/min - Ascent Speed: 250kts - Cruise Altitude: 35000ft - Cruise Speed: 420kts - Descent Rate: 1500ft/min - Descent Speed: 250kts Options: - Use NATs: yes - Use PACOTS: yes - Use low airways: yes - Use high airways: yes

Route

MMPN MLM MMMM

ID Type Via Altitude (ft/m) Position (lat/lon) Dist (leg/tot) Name
O MMPN APT - 0 / 0 19.39669 / -102.03906 - / 0 nm LICENCIADO Y GEN IGNACIO LOPEZ RAYON
MLM VOR - 100 / 30 19.84378 / -101.03704 62 / 62 nm MORELIA VOR-DME
O MMMM APT - 0 / 0 19.85049 / -101.02526 0 / 63 nm GENERAL FRANCISCO J MUJICA INTL

Altitude Profile

Advertisement - Login to hide

MMPN

Details ICAO MMPN (UPN)
Name Uruapan
Region Mexico
Timezone America/Mexico_City (UTC-6.0)
Stats Elevation 5,258 ft / 1,603 m (AMSL)
Location 19.396500° -102.039000°
Runways 1
Magnetic Variation 5.687° E

METAR

Not found

TAF

TAF AMD MMPN 182339Z 1900/1918 00000KT P6SM BKN030 OVC070 BECMG 1906/1907 3SM BR BKN010 TEMPO 1910/1914 1SM BR FM191400 14005KT 4SM HZ SCT015 BKN070

Decode

Departure Runways

ID Width Length Bearing (true/mag) Surface Threshold Overrun Markings Lighting
02 148 ft / 45 m 7,881 ft / 2,402 m 31.67° / 25.98° ASPHALT 0 ft / 0 m 0 ft / 0 m APP EDGE THRESHOLD
20 148 ft / 45 m 7,881 ft / 2,402 m 211.67° / 205.99° ASPHALT 0 ft / 0 m 0 ft / 0 m APP EDGE THRESHOLD

MMMM

Details ICAO MMMM (MLM)
Name General Francisco J Mujica intl
Region Mexico
Timezone America/Mexico_City (UTC-6.0)
Stats Elevation 6,033 ft / 1,839 m (AMSL)
Location 19.849900° -101.025000°
Runways 1
Magnetic Variation 5.306° E

METAR

Not found

TAF

TAF MMMM 182326Z 1900/2006 20010KT P6SM SCT030 SCT100 BKN230 FM190600 00000KT P6SM SCT230 FM191200 00000KT 4SM HZ SCT030 TEMPO 1912/1915 3SM BR BKN020 FM191600 22010KT P6SM SCT230 FM200300 00000KT P6SM SKC

Decode

Destination Runways

ID Width Length Bearing (true/mag) Surface Threshold Overrun Markings Lighting
05 148 ft / 45 m 11,186 ft / 3,410 m 54.47° / 49.16° ASPHALT 0 ft / 0 m 190 ft / 58 m PREC-APP EDGE THRESHOLD ODALS
23 148 ft / 45 m 11,186 ft / 3,410 m 234.48° / 229.17° ASPHALT 0 ft / 0 m 177 ft / 54 m PREC-APP EDGE THRESHOLD SSALF

Popular Alternatives